Time;durP1;ratioP1;P1;durP2;ratioP2;P2;SDS_P1;SDS_P2;PMS_P1;PMS_P2;Temp;Humidity;BMP_temperature;BMP_pressure;BME280_temperature;BME280_humidity;BME280_pressure;Samples;Min_cycle;Max_cycle;Signal;HPM_P1;HPM_P2
2021/08/17 00:00:55;;;;;;;;;24.75;19.75;;;;;20.67;48.36;101765.38;5001866;28;45403;-80
2021/08/17 00:03:21;;;;;;;;;17.25;17.25;;;;;20.68;48.58;101764.38;5001522;28;46242;-79
2021/08/17 00:05:47;;;;;;;;;17.75;16.75;;;;;20.65;48.52;101762.75;5001323;28;45446;-78
2021/08/17 00:08:12;;;;;;;;;20.50;18.25;;;;;20.66;48.78;101772.63;5001746;28;45345;-78
2021/08/17 00:10:38;;;;;;;;;18.75;18.00;;;;;20.64;48.49;101770.97;5001811;28;45217;-79
2021/08/17 00:13:03;;;;;;;;;22.50;19.75;;;;;20.61;48.82;101774.69;5001416;28;46172;-79
2021/08/17 00:15:29;;;;;;;;;15.00;15.00;;;;;20.60;48.85;101770.25;5001704;28;45384;-78
2021/08/17 00:17:55;;;;;;;;;22.00;16.25;;;;;20.59;48.66;101765.78;5001714;28;45286;-79
2021/08/17 00:20:21;;;;;;;;;17.75;17.25;;;;;20.62;48.78;101762.88;5001633;28;45246;-80
2021/08/17 00:22:46;;;;;;;;;16.25;16.25;;;;;20.60;49.25;101761.22;5001107;28;46950;-79
2021/08/17 00:25:12;;;;;;;;;21.25;15.50;;;;;20.57;49.24;101762.28;5001406;28;45234;-77
2021/08/17 00:27:38;;;;;;;;;21.75;16.50;;;;;20.57;49.07;101766.84;5001499;28;45461;-80
2021/08/17 00:30:05;;;;;;;;;18.00;15.00;;;;;20.57;48.68;101767.72;5001446;28;45640;-78
2021/08/17 00:32:31;;;;;;;;;19.50;18.50;;;;;20.53;48.98;101764.31;5001267;28;45307;-78
2021/08/17 00:34:56;;;;;;;;;18.75;16.25;;;;;20.54;49.40;101767.88;5001218;28;45307;-79
2021/08/17 00:37:22;;;;;;;;;16.75;13.75;;;;;20.50;49.29;101763.63;5001218;28;45261;-79
2021/08/17 00:39:47;;;;;;;;;17.25;16.25;;;;;20.50;49.54;101769.91;5001299;28;46697;-78
2021/08/17 00:42:13;;;;;;;;;18.25;17.00;;;;;20.45;49.03;101761.16;5000964;28;46086;-79
2021/08/17 00:44:38;;;;;;;;;18.50;17.00;;;;;20.43;49.49;101756.78;5001189;28;45215;-79
2021/08/17 00:47:04;;;;;;;;;18.75;17.00;;;;;20.46;49.85;101757.47;5001325;28;45320;-79
2021/08/17 00:49:30;;;;;;;;;14.75;14.00;;;;;20.44;49.32;101759.41;5001073;28;45421;-78
2021/08/17 00:51:59;;;;;;;;;20.75;16.75;;;;;20.41;49.57;101765.00;5000824;28;46041;-78
2021/08/17 00:54:25;;;;;;;;;14.25;14.25;;;;;20.38;49.73;101756.16;5000949;28;45356;-80
2021/08/17 00:56:52;;;;;;;;;20.75;15.25;;;;;20.38;49.65;101756.16;5001013;28;45418;-79
2021/08/17 00:59:18;;;;;;;;;16.00;16.00;;;;;20.42;49.25;101750.50;5001077;28;45215;-79
2021/08/17 01:01:43;;;;;;;;;15.50;12.75;;;;;20.43;49.49;101752.25;5000725;28;45288;-80
2021/08/17 01:04:09;;;;;;;;;18.50;14.50;;;;;20.45;49.97;101761.16;5000630;28;45410;-78
2021/08/17 01:06:36;;;;;;;;;16.50;12.75;;;;;20.41;49.95;101756.00;5000507;28;45424;-78
2021/08/17 01:09:02;;;;;;;;;13.75;13.25;;;;;20.38;49.96;101745.31;5001226;28;45335;-78
2021/08/17 01:11:28;;;;;;;;;15.25;13.00;;;;;20.35;49.73;101740.97;5000523;28;46313;-77
2021/08/17 01:13:53;;;;;;;;;12.75;12.00;;;;;20.37;50.09;101747.16;5000745;28;45402;-79
2021/08/17 01:16:20;;;;;;;;;13.50;13.50;;;;;20.35;50.29;101741.84;5000811;28;45344;-77
2021/08/17 01:18:46;;;;;;;;;14.50;11.75;;;;;20.34;50.08;101745.50;5000638;28;45313;-78
2021/08/17 01:21:12;;;;;;;;;12.50;12.50;;;;;20.32;50.30;101746.56;4998946;28;45896;-79
2021/08/17 01:23:38;;;;;;;;;19.25;18.00;;;;;20.31;50.14;101758.34;5000636;28;45351;-78
2021/08/17 01:26:03;;;;;;;;;16.25;15.25;;;;;20.28;50.33;101761.25;5000520;28;45232;-79
2021/08/17 01:28:29;;;;;;;;;15.00;13.75;;;;;20.26;50.41;101761.31;5000403;28;45411;-79
2021/08/17 01:30:59;;;;;;;;;14.50;13.00;;;;;20.24;50.33;101757.84;5000235;28;45578;-79
2021/08/17 01:33:25;;;;;;;;;19.00;14.50;;;;;20.23;50.44;101764.25;5000396;28;45470;-79
2021/08/17 01:35:50;;;;;;;;;16.00;16.00;;;;;20.18;50.14;101755.50;5000160;28;45394;-78
2021/08/17 01:38:15;;;;;;;;;16.25;13.50;;;;;20.22;50.61;101765.19;5000577;28;45336;-78
2021/08/17 01:40:40;;;;;;;;;14.25;12.50;;;;;20.12;50.60;101751.28;4999924;28;51544;-78
2021/08/17 01:43:06;;;;;;;;;18.25;18.25;;;;;20.18;50.49;101764.50;5000254;28;45241;-78
2021/08/17 01:45:31;;;;;;;;;15.25;15.00;;;;;20.15;50.44;101764.66;5000221;28;45334;-78
2021/08/17 01:47:57;;;;;;;;;12.75;12.75;;;;;20.15;50.51;101766.50;5000262;28;45229;-78
2021/08/17 01:50:24;;;;;;;;;17.50;14.00;;;;;20.14;50.78;101772.88;5000350;28;45410;-79
2021/08/17 01:52:49;;;;;;;;;19.00;16.00;;;;;20.11;50.75;101771.22;4999873;28;45182;-78
2021/08/17 01:55:15;;;;;;;;;14.00;13.00;;;;;20.10;50.81;101768.59;5000018;28;45145;-79
2021/08/17 01:57:41;;;;;;;;;19.25;16.00;;;;;20.08;50.69;101765.97;5000077;28;45216;-79
2021/08/17 02:00:07;;;;;;;;;15.50;13.50;;;;;20.07;51.06;101768.78;5000045;28;46190;-79
2021/08/17 02:02:33;;;;;;;;;19.00;17.50;;;;;20.02;50.74;101752.75;4999945;28;45416;-78
2021/08/17 02:04:58;;;;;;;;;17.75;14.00;;;;;20.01;51.04;101744.72;5000000;28;45310;-78
2021/08/17 02:07:24;;;;;;;;;13.00;12.00;;;;;20.05;50.83;101747.19;4999770;28;45265;-78
2021/08/17 02:09:49;;;;;;;;;15.75;14.50;;;;;19.95;50.80;101729.69;4999883;28;47047;-77
2021/08/17 02:12:14;;;;;;;;;17.50;14.00;;;;;20.01;50.84;101742.00;4999895;28;45284;-77
2021/08/17 02:14:40;;;;;;;;;17.25;15.50;;;;;20.00;50.86;101749.28;5001283;28;45279;-78
2021/08/17 02:17:05;;;;;;;;;17.25;12.50;;;;;20.01;50.92;101745.59;5003484;28;45559;-78
2021/08/17 02:19:30;;;;;;;;;16.00;13.25;;;;;19.97;51.12;101741.31;5003511;28;46674;-79
2021/08/17 02:21:56;;;;;;;;;11.75;11.75;;;;;19.99;51.13;101745.66;5003031;28;45375;-78
2021/08/17 02:24:21;;;;;;;;;14.00;12.25;;;;;19.94;51.21;101734.22;5003361;28;45351;-79
2021/08/17 02:26:47;;;;;;;;;14.25;13.25;;;;;19.92;51.22;101741.56;5003267;28;45319;-77
2021/08/17 02:29:12;;;;;;;;;12.00;12.00;;;;;19.93;51.45;101737.00;5003099;28;45391;-77
2021/08/17 02:31:37;;;;;;;;;11.00;8.75;;;;;19.92;51.19;101737.97;5003159;28;45329;-78
2021/08/17 02:34:03;;;;;;;;;15.75;14.50;;;;;19.93;51.15;101747.84;5003249;28;45403;-79
2021/08/17 02:36:28;;;;;;;;;15.25;12.50;;;;;19.92;50.93;101740.69;5002902;28;45209;-77
2021/08/17 02:38:53;;;;;;;;;16.25;15.75;;;;;19.93;51.09;101748.75;5003083;28;46074;-77
2021/08/17 02:41:19;;;;;;;;;13.25;12.00;;;;;19.89;50.90;101735.44;5002905;28;45298;-77
2021/08/17 02:43:44;;;;;;;;;15.25;13.75;;;;;19.90;51.32;101745.34;5003215;28;45242;-79
2021/08/17 02:46:09;;;;;;;;;15.00;12.25;;;;;19.82;51.26;101745.75;5002968;28;45360;-78
2021/08/17 02:48:34;;;;;;;;;15.25;15.00;;;;;19.87;51.38;101749.06;5002976;28;45263;-77
2021/08/17 02:51:00;;;;;;;;;14.75;12.50;;;;;19.80;51.08;101745.84;5002504;28;45300;-79
2021/08/17 02:53:25;;;;;;;;;12.75;12.75;;;;;19.77;51.41;101743.28;5003097;28;45813;-77
2021/08/17 02:55:51;;;;;;;;;12.25;10.00;;;;;19.79;51.27;101749.50;5002578;28;45517;-78
2021/08/17 02:58:16;;;;;;;;;11.25;10.25;;;;;19.79;51.60;101745.91;5002707;28;45181;-77
2021/08/17 03:00:42;;;;;;;;;10.50;10.50;;;;;19.77;51.27;101758.69;5002668;28;45296;-77
2021/08/17 03:03:08;;;;;;;;;9.50;9.50;;;;;19.71;51.48;101743.63;5002770;28;45761;-79
2021/08/17 03:05:34;;;;;;;;;13.00;12.25;;;;;19.70;51.52;101749.97;5002406;28;45855;-78
2021/08/17 03:08:03;;;;;;;;;13.00;12.50;;;;;19.70;51.58;101749.13;5002560;28;46281;-77
2021/08/17 03:10:29;;;;;;;;;13.25;11.75;;;;;19.69;51.63;101747.34;5002645;28;45229;-77
2021/08/17 03:12:55;;;;;;;;;17.00;15.25;;;;;19.65;51.94;101743.06;5002663;28;45238;-77
2021/08/17 03:15:21;;;;;;;;;11.75;11.00;;;;;19.62;51.54;101744.09;5002538;28;45490;-77
2021/08/17 03:17:47;;;;;;;;;13.25;12.25;;;;;19.62;51.89;101750.38;5002327;28;46261;-79
2021/08/17 03:20:14;;;;;;;;;13.00;10.75;;;;;19.61;51.66;101745.94;5002401;28;45329;-78
2021/08/17 03:22:40;;;;;;;;;13.75;13.00;;;;;19.61;51.90;101745.94;5002504;28;45361;-78
2021/08/17 03:25:09;;;;;;;;;12.75;12.25;;;;;19.57;51.76;101738.06;5002119;28;45323;-77
2021/08/17 03:27:35;;;;;;;;;12.75;12.75;;;;;19.60;51.82;101738.78;5002165;28;46473;-77
2021/08/17 03:30:02;;;;;;;;;14.50;12.50;;;;;19.59;52.05;101736.13;5002564;28;45240;-77
2021/08/17 03:32:28;;;;;;;;;16.50;14.50;;;;;19.58;51.74;101734.41;5002121;28;45473;-77
2021/08/17 03:34:53;;;;;;;;;14.75;14.50;;;;;19.53;51.70;101737.34;5002361;28;45502;-78
2021/08/17 03:37:19;;;;;;;;;14.50;13.00;;;;;19.55;51.96;101742.69;5001886;28;46370;-78
2021/08/17 03:39:46;;;;;;;;;14.25;12.25;;;;;19.51;51.89;101733.88;5002266;28;45312;-79
2021/08/17 03:42:12;;;;;;;;;13.25;13.25;;;;;19.50;51.98;101742.94;5002113;28;45323;-78
2021/08/17 03:44:37;;;;;;;;;11.25;11.25;;;;;19.50;52.27;101742.94;5002251;28;45333;-77
2021/08/17 03:47:03;;;;;;;;;13.75;10.25;;;;;19.50;52.44;101736.66;5001890;28;45997;-77
2021/08/17 03:49:28;;;;;;;;;13.50;12.50;;;;;19.42;52.05;101727.09;5001950;28;45313;-77
2021/08/17 03:51:53;;;;;;;;;10.25;8.00;;;;;19.48;52.10;101733.13;5001968;28;45216;-78
2021/08/17 03:54:19;;;;;;;;;12.00;12.00;;;;;19.42;52.43;101737.94;5001866;28;45208;-78
2021/08/17 03:56:44;;;;;;;;;8.00;8.00;;;;;19.46;52.24;101740.47;5001598;28;46150;-78
2021/08/17 03:59:09;;;;;;;;;11.00;11.00;;;;;19.42;52.21;101734.34;4988824;28;45280;-76
2021/08/17 04:01:35;;;;;;;;;12.00;11.00;;;;;19.42;52.09;101742.47;5002020;28;45221;-77
2021/08/17 04:04:00;;;;;;;;;20.25;12.50;;;;;19.37;52.25;101728.31;5001424;28;46407;-77
2021/08/17 04:06:25;;;;;;;;;18.25;14.00;;;;;19.36;52.53;101740.97;5000214;28;46805;-77
2021/08/17 04:08:52;;;;;;;;;11.00;11.00;;;;;19.31;52.28;101731.34;5001738;28;45207;-78
2021/08/17 04:11:18;;;;;;;;;12.75;12.75;;;;;19.30;52.33;101738.59;5001935;28;45368;-77
2021/08/17 04:13:43;;;;;;;;;13.00;13.00;;;;;19.29;52.71;101742.25;5001485;28;45629;-77
2021/08/17 04:16:08;;;;;;;;;14.25;11.50;;;;;19.30;52.64;101735.03;5001798;28;46033;-77
2021/08/17 04:18:34;;;;;;;;;8.25;8.25;;;;;19.28;52.25;101735.09;5001376;28;45256;-78
2021/08/17 04:21:00;;;;;;;;;16.25;12.50;;;;;19.28;52.58;101729.69;5001412;28;45347;-78
2021/08/17 04:23:25;;;;;;;;;14.50;13.50;;;;;19.30;52.60;101737.72;5001593;28;45364;-79
2021/08/17 04:25:50;;;;;;;;;12.50;10.75;;;;;19.30;52.60;101740.44;5001197;28;46398;-77
2021/08/17 04:28:16;;;;;;;;;15.25;14.25;;;;;19.29;52.63;101735.97;5001061;28;45277;-78
2021/08/17 04:30:41;;;;;;;;;14.25;11.50;;;;;19.29;52.73;101730.56;5001577;28;45431;-78
2021/08/17 04:33:07;;;;;;;;;15.00;13.00;;;;;19.29;52.54;101728.72;5001237;28;45332;-78
2021/08/17 04:35:32;;;;;;;;;14.00;11.50;;;;;19.26;52.60;101728.88;5000960;28;46077;-77
2021/08/17 04:37:57;;;;;;;;;10.75;10.50;;;;;19.28;52.75;101731.50;5000489;28;45241;-77
2021/08/17 04:40:23;;;;;;;;;11.25;9.25;;;;;19.27;52.91;101732.47;5001476;28;45419;-78
2021/08/17 04:42:48;;;;;;;;;11.50;10.75;;;;;19.23;52.81;101727.22;5000905;28;45481;-79
2021/08/17 04:45:13;;;;;;;;;14.25;13.75;;;;;19.26;52.57;101731.56;5001036;28;50268;-77
2021/08/17 04:47:51;;;;;;;;;16.00;13.50;;;;;19.25;52.48;101732.56;5000890;28;45293;-77
2021/08/17 04:50:17;;;;;;;;;13.25;12.75;;;;;19.23;52.79;101731.78;5001122;28;45309;-78
2021/08/17 04:52:43;;;;;;;;;11.50;11.50;;;;;19.24;52.72;101737.09;5000897;28;45296;-77
2021/08/17 04:55:09;;;;;;;;;12.00;11.25;;;;;19.19;52.85;101722.91;5000655;28;45459;-77
2021/08/17 04:57:51;;;;;;;;;12.25;11.00;;;;;19.24;53.02;101725.38;5001059;28;45493;-77
2021/08/17 05:00:17;;;;;;;;;11.25;11.25;;;;;19.15;52.85;101715.91;5000908;28;45331;-78
2021/08/17 05:02:42;;;;;;;;;13.75;11.75;;;;;19.21;52.99;101734.56;5000991;28;45491;-78
2021/08/17 05:05:08;;;;;;;;;14.25;12.00;;;;;19.17;52.83;101723.97;5000644;28;46506;-77
2021/08/17 05:07:37;;;;;;;;;14.50;12.50;;;;;19.19;53.09;101733.72;5000572;28;45322;-78
2021/08/17 05:10:05;;;;;;;;;13.25;12.50;;;;;19.18;53.06;101734.72;5000891;28;45404;-77
2021/08/17 05:12:31;;;;;;;;;18.00;14.50;;;;;19.13;53.05;101720.56;5000904;28;45363;-76
2021/08/17 05:14:56;;;;;;;;;15.00;12.75;;;;;19.15;53.26;101737.56;5000508;28;46434;-77
2021/08/17 05:17:21;;;;;;;;;13.25;12.25;;;;;19.13;53.27;101734.06;5000706;28;45333;-76
2021/08/17 05:19:46;;;;;;;;;11.25;11.25;;;;;19.08;53.23;101730.75;5000787;28;45442;-77
2021/08/17 05:22:12;;;;;;;;;14.00;13.00;;;;;19.12;53.07;101742.28;5000372;28;45200;-78
2021/08/17 05:24:37;;;;;;;;;14.75;12.00;;;;;19.12;53.52;101747.69;5000477;28;45417;-78
2021/08/17 05:27:03;;;;;;;;;14.25;12.25;;;;;19.12;53.78;101751.25;5000406;28;45612;-78
2021/08/17 05:29:28;;;;;;;;;10.75;9.50;;;;;19.11;53.48;101746.81;5000618;28;45252;-77
2021/08/17 05:31:53;;;;;;;;;9.75;9.75;;;;;19.10;53.63;101749.59;5000678;28;45307;-78
2021/08/17 05:34:18;;;;;;;;;12.75;12.75;;;;;19.06;53.75;101751.56;4999586;28;60052;-76
2021/08/17 05:36:44;;;;;;;;;16.00;15.50;;;;;19.07;53.91;101756.03;5000309;28;45250;-78
2021/08/17 05:39:09;;;;;;;;;15.00;9.25;;;;;19.02;53.58;101755.41;5000468;28;45527;-78
2021/08/17 05:41:34;;;;;;;;;14.25;10.25;;;;;19.06;53.78;101765.09;5000313;28;45554;-78
2021/08/17 05:44:00;;;;;;;;;16.00;14.75;;;;;19.06;53.75;101765.09;5000159;28;45300;-77
2021/08/17 05:46:25;;;;;;;;;13.25;11.00;;;;;19.09;53.60;101767.66;5000480;28;45312;-77
2021/08/17 05:48:50;;;;;;;;;14.75;14.75;;;;;19.07;53.96;101775.84;4999035;28;45487;-78
2021/08/17 05:51:16;;;;;;;;;14.00;12.75;;;;;19.07;53.38;101765.03;5000112;28;45470;-78
2021/08/17 05:53:41;;;;;;;;;14.50;12.25;;;;;19.02;53.95;101755.41;4999930;28;45383;-78
2021/08/17 05:56:06;;;;;;;;;16.50;13.50;;;;;19.08;53.82;101765.91;5000136;28;45315;-78
2021/08/17 05:58:32;;;;;;;;;13.00;11.50;;;;;19.09;53.99;101773.06;5000151;28;45352;-79
2021/08/17 06:00:57;;;;;;;;;11.25;10.50;;;;;19.11;53.89;101776.59;5000224;28;45323;-78
2021/08/17 06:03:22;;;;;;;;;11.75;11.75;;;;;19.03;53.83;101757.16;4999847;28;46314;-78
2021/08/17 06:05:48;;;;;;;;;11.75;9.50;;;;;19.12;53.76;101778.31;4999773;28;45212;-77
2021/08/17 06:08:13;;;;;;;;;11.75;11.75;;;;;19.08;53.98;101765.91;5000108;28;45244;-78
2021/08/17 06:10:38;;;;;;;;;14.00;10.75;;;;;19.12;53.66;101766.63;5000012;28;45212;-77
2021/08/17 06:13:04;;;;;;;;;11.50;10.75;;;;;19.15;54.19;101778.16;4999719;28;45443;-77
2021/08/17 06:15:29;;;;;;;;;9.75;9.25;;;;;19.11;54.04;101773.88;4998240;28;56310;-78
2021/08/17 06:18:01;;;;;;;;;6.75;6.75;;;;;19.13;54.00;101779.19;4999872;28;45385;-78
2021/08/17 06:20:27;;;;;;;;;10.75;10.75;;;;;19.09;54.06;101775.78;4999612;28;45303;-78
2021/08/17 06:22:52;;;;;;;;;11.25;10.25;;;;;19.15;54.04;101789.00;4999683;28;46297;-78
2021/08/17 06:25:17;;;;;;;;;12.50;12.50;;;;;19.17;53.72;101787.06;4999601;28;49858;-77
2021/08/17 06:27:43;;;;;;;;;11.00;9.00;;;;;19.19;54.21;101787.88;4999717;28;45492;-78
2021/08/17 06:30:08;;;;;;;;;13.75;12.75;;;;;19.17;54.18;101780.78;4999827;28;46542;-78
2021/08/17 06:32:34;;;;;;;;;11.00;11.00;;;;;19.20;53.91;101791.47;4999487;28;45415;-78
2021/08/17 06:34:59;;;;;;;;;13.75;10.50;;;;;19.17;54.12;101780.78;4999832;28;45431;-77
2021/08/17 06:37:25;;;;;;;;;14.50;12.25;;;;;19.20;54.19;101781.50;4999394;28;45205;-78
2021/08/17 06:39:50;;;;;;;;;12.25;12.25;;;;;19.23;54.34;101783.19;4999671;28;45283;-78
2021/08/17 06:42:15;;;;;;;;;13.75;11.75;;;;;19.21;53.90;101772.44;4999299;28;46175;-78
2021/08/17 06:44:40;;;;;;;;;12.75;11.50;;;;;19.25;53.98;101779.44;4999467;28;45345;-77
2021/08/17 06:47:06;;;;;;;;;10.50;9.50;;;;;19.26;54.16;101783.00;4999631;28;45133;-77
2021/08/17 06:49:31;;;;;;;;;9.00;9.00;;;;;19.26;54.18;101780.31;4999420;28;45220;-78
2021/08/17 06:51:56;;;;;;;;;11.75;10.00;;;;;19.30;54.17;101787.31;4999010;28;45228;-78
2021/08/17 06:54:22;;;;;;;;;10.25;9.50;;;;;19.29;54.09;101785.56;4999379;28;45215;-77
2021/08/17 06:56:47;;;;;;;;;14.75;12.50;;;;;19.35;53.86;101787.94;4999293;28;45860;-78
2021/08/17 06:59:12;;;;;;;;;13.00;11.25;;;;;19.37;53.94;101779.75;4999607;28;45601;-79
2021/08/17 07:01:38;;;;;;;;;14.00;13.25;;;;;19.37;53.96;101777.91;5001847;28;49027;-79
2021/08/17 07:04:03;;;;;;;;;12.00;8.75;;;;;19.33;54.03;101770.03;5002414;28;45316;-78
2021/08/17 07:06:29;;;;;;;;;13.50;10.50;;;;;19.40;54.33;101776.88;5002520;28;45778;-77
2021/08/17 07:08:55;;;;;;;;;15.00;14.00;;;;;19.44;54.11;101786.59;5002548;28;45304;-78
2021/08/17 07:11:21;;;;;;;;;11.50;9.75;;;;;19.42;54.31;101783.09;5002541;28;47004;-78
2021/08/17 07:13:46;;;;;;;;;13.25;9.75;;;;;19.42;53.94;101780.38;5002449;28;45299;-78
2021/08/17 07:16:12;;;;;;;;;13.75;11.50;;;;;19.41;54.55;101775.91;5002840;28;45479;-77
2021/08/17 07:18:37;;;;;;;;;12.00;10.25;;;;;19.43;54.51;101774.88;5002345;28;45430;-77
2021/08/17 07:21:02;;;;;;;;;12.50;10.75;;;;;19.50;54.46;101785.41;5002067;28;45956;-77
2021/08/17 07:23:28;;;;;;;;;11.50;8.75;;;;;19.50;54.51;101786.25;5002383;28;45292;-80
2021/08/17 07:25:53;;;;;;;;;12.00;11.00;;;;;19.50;54.51;101780.84;5002384;28;45278;-76
2021/08/17 07:28:19;;;;;;;;;7.00;7.00;;;;;19.54;54.64;101785.13;5002332;28;45403;-77
2021/08/17 07:30:45;;;;;;;;;15.25;12.75;;;;;19.55;54.74;101786.88;5002179;28;46176;-76
2021/08/17 07:33:10;;;;;;;;;9.00;9.00;;;;;19.55;54.43;101784.19;5001961;28;45248;-76
2021/08/17 07:35:36;;;;;;;;;13.00;11.75;;;;;19.58;54.46;101786.72;5002242;28;45173;-76
2021/08/17 07:38:02;;;;;;;;;12.25;11.25;;;;;19.62;54.38;101793.72;5002203;28;45228;-76
2021/08/17 07:40:28;;;;;;;;;12.25;9.00;;;;;19.63;54.34;101781.94;5001997;28;46524;-78
2021/08/17 07:42:53;;;;;;;;;9.75;8.00;;;;;19.71;54.16;101799.59;5002219;28;45413;-77
2021/08/17 07:45:20;;;;;;;;;10.00;9.00;;;;;19.73;54.21;101790.44;5002195;28;45348;-77
2021/08/17 07:47:45;;;;;;;;;9.50;9.50;;;;;19.76;54.04;101800.25;5001943;28;45473;-78
2021/08/17 07:50:12;;;;;;;;;15.75;11.00;;;;;19.81;54.02;101803.59;5001844;28;45494;-76
2021/08/17 07:52:38;;;;;;;;;9.25;9.25;;;;;19.83;54.26;101793.56;5001592;28;45507;-77
2021/08/17 07:55:09;;;;;;;;;10.50;10.50;;;;;19.86;54.21;101793.38;5002165;28;45212;-76
2021/08/17 07:57:35;;;;;;;;;9.75;9.00;;;;;19.85;54.40;101785.34;5001750;28;45470;-76
2021/08/17 08:00:01;;;;;;;;;11.75;8.25;;;;;19.89;54.21;101790.50;5001794;28;45311;-75
2021/08/17 08:02:26;;;;;;;;;14.25;11.25;;;;;19.88;54.68;101785.16;5001725;28;45213;-77
2021/08/17 08:04:51;;;;;;;;;10.75;9.00;;;;;19.97;54.48;101793.66;5001860;28;45518;-76
2021/08/17 08:07:17;;;;;;;;;8.00;7.00;;;;;19.96;54.38;101791.94;5001421;28;45379;-77
2021/08/17 08:09:42;;;;;;;;;13.75;12.25;;;;;20.01;54.68;101798.91;5001572;28;46090;-78
2021/08/17 08:12:10;;;;;;;;;12.25;10.75;;;;;20.05;54.47;101797.81;4999127;28;45358;-77
2021/08/17 08:14:36;;;;;;;;;9.00;9.00;;;;;20.07;54.32;101793.16;5001511;28;45326;-76
2021/08/17 08:17:02;;;;;;;;;8.25;8.25;;;;;20.09;54.20;101796.66;5001485;28;45336;-76
2021/08/17 08:19:27;;;;;;;;;10.50;8.75;;;;;20.04;53.66;101785.19;5001091;28;46453;-76
2021/08/17 08:21:52;;;;;;;;;11.75;8.50;;;;;20.17;54.01;101803.41;5001580;28;45311;-76
2021/08/17 08:24:18;;;;;;;;;12.00;7.25;;;;;20.18;54.14;101801.59;5001681;28;45569;-77
2021/08/17 08:26:43;;;;;;;;;10.25;9.50;;;;;20.23;54.31;101796.78;5001131;28;45462;-76
2021/08/17 08:29:08;;;;;;;;;7.25;7.25;;;;;20.18;54.46;101794.31;5001401;28;45367;-76
2021/08/17 08:31:34;;;;;;;;;10.75;7.50;;;;;20.21;54.00;101793.25;5000039;28;45692;-75
2021/08/17 08:33:59;;;;;;;;;10.75;8.75;;;;;20.17;54.21;101779.00;5001357;28;45437;-75
2021/08/17 08:36:25;;;;;;;;;9.50;8.00;;;;;20.22;54.36;101789.59;4999682;28;45619;-76
2021/08/17 08:38:50;;;;;;;;;8.75;7.25;;;;;20.35;54.25;101803.34;5001258;28;46181;-75
2021/08/17 08:41:19;;;;;;;;;8.75;7.00;;;;;20.29;54.16;101788.28;4999879;28;45438;-75
2021/08/17 08:43:45;;;;;;;;;8.00;7.00;;;;;20.36;54.54;101803.25;5001283;28;45224;-75
2021/08/17 08:46:18;;;;;;;;;8.00;6.75;;;;;20.27;54.36;101776.66;5001247;28;45232;-76
2021/08/17 08:48:51;;;;;;;;;7.50;6.25;;;;;20.44;54.45;101807.34;5000843;28;45273;-76
2021/08/17 08:51:19;;;;;;;;;9.50;9.00;;;;;20.48;54.64;101812.53;4999484;28;46332;-76
2021/08/17 08:53:45;;;;;;;;;8.75;6.00;;;;;20.43;54.38;101795.63;5001220;28;45205;-76
2021/08/17 08:56:11;;;;;;;;;8.00;6.25;;;;;20.47;54.38;101797.19;5000786;28;45319;-76
2021/08/17 08:58:37;;;;;;;;;7.25;7.25;;;;;20.58;54.07;101806.56;5000616;28;45290;-75
2021/08/17 09:01:03;;;;;;;;;6.50;6.00;;;;;20.56;54.45;101795.78;5001216;28;45314;-76
2021/08/17 09:03:41;;;;;;;;;7.25;7.00;;;;;20.64;54.14;101804.38;5000856;28;45400;-76
2021/08/17 09:06:18;;;;;;;;;10.50;8.50;;;;;20.57;53.71;101788.53;5000660;28;45334;-75
2021/08/17 09:08:43;;;;;;;;;12.75;10.75;;;;;20.66;54.40;101790.75;4999439;28;45494;-75
2021/08/17 09:11:20;;;;;;;;;9.00;7.00;;;;;20.60;53.91;101791.94;5000898;28;45300;-76
2021/08/17 09:13:46;;;;;;;;;8.75;6.75;;;;;20.66;53.59;101796.16;5000904;28;45229;-77
2021/08/17 09:16:23;;;;;;;;;6.25;6.00;;;;;20.66;53.65;101786.19;5000590;28;45509;-76
2021/08/17 09:18:50;;;;;;;;;5.75;5.75;;;;;20.64;53.89;101782.69;5000427;28;45333;-77
2021/08/17 09:21:15;;;;;;;;;6.50;5.50;;;;;20.70;53.76;101784.19;5000293;28;45366;-76
2021/08/17 09:23:40;;;;;;;;;8.00;7.00;;;;;20.71;53.86;101794.06;5000551;28;45339;-77
2021/08/17 09:26:24;;;;;;;;;7.50;7.50;;;;;20.64;54.04;101779.97;5000423;28;45422;-79
2021/08/17 09:28:57;;;;;;;;;7.50;6.75;;;;;20.71;53.62;101789.53;5000456;28;45374;-77
2021/08/17 09:31:34;;;;;;;;;8.75;8.00;;;;;20.68;54.01;101777.94;4999176;28;45322;-78
2021/08/17 09:34:00;;;;;;;;;9.00;8.00;;;;;20.68;53.38;101770.72;4999042;28;45414;-77
2021/08/17 09:36:40;;;;;;;;;7.75;7.00;;;;;20.78;53.60;101787.31;5000190;28;45303;-77
2021/08/17 09:39:06;;;;;;;;;7.00;6.00;;;;;20.79;53.02;101788.19;5000142;28;48391;-77
2021/08/17 09:41:32;;;;;;;;;7.25;7.00;;;;;20.78;52.29;101783.72;5000317;28;45250;-76
2021/08/17 09:44:04;;;;;;;;;8.00;8.00;;;;;20.64;51.93;101766.41;4999137;28;45510;-77
2021/08/17 09:46:40;;;;;;;;;7.25;7.25;;;;;20.71;52.35;101783.19;5000245;28;45462;-78
2021/08/17 09:49:19;;;;;;;;;8.00;6.50;;;;;20.76;52.67;101781.09;4999935;28;45334;-76
2021/08/17 09:51:45;;;;;;;;;7.00;7.00;;;;;20.77;52.53;101785.56;4999925;28;45446;-78
2021/08/17 09:54:19;;;;;;;;;9.00;6.00;;;;;20.79;52.63;101790.91;4995737;28;45447;-77
2021/08/17 09:56:59;;;;;;;;;7.00;6.25;;;;;20.71;52.35;101773.25;4994156;28;45431;-77
2021/08/17 09:59:28;;;;;;;;;7.25;7.25;;;;;20.75;52.14;101775.75;5000309;28;45230;-77
2021/08/17 10:01:54;;;;;;;;;7.50;6.25;;;;;20.81;52.55;101780.81;4999818;28;45977;-77
2021/08/17 10:04:22;;;;;;;;;7.00;7.00;;;;;20.78;52.29;101767.44;4999960;28;45372;-78
2021/08/17 10:06:49;;;;;;;;;9.25;7.50;;;;;20.84;51.95;101777.94;4999579;28;45447;-78
2021/08/17 10:09:17;;;;;;;;;9.00;9.00;;;;;20.80;51.94;101776.34;4999813;28;46522;-78
2021/08/17 10:11:44;;;;;;;;;10.00;9.50;;;;;20.81;52.19;101768.13;4999986;28;45534;-78
2021/08/17 10:14:14;;;;;;;;;7.25;7.25;;;;;20.82;51.96;101772.59;4998655;28;45413;-79
2021/08/17 10:16:41;;;;;;;;;8.00;5.50;;;;;20.82;51.62;101764.47;4999906;28;45200;-78
2021/08/17 10:19:08;;;;;;;;;7.25;7.25;;;;;20.82;51.72;101755.44;4999733;28;47267;-76
2021/08/17 10:21:34;;;;;;;;;9.50;8.00;;;;;20.62;51.70;101715.91;4998177;28;45377;-76
2021/08/17 10:24:22;;;;;;;;;6.25;6.00;;;;;20.90;51.76;101756.75;4999894;28;45324;-78
2021/08/17 10:26:48;;;;;;;;;8.00;7.50;;;;;20.86;51.71;101748.88;4999440;28;45307;-78
2021/08/17 10:29:26;;;;;;;;;7.75;7.00;;;;;20.83;51.95;101728.22;4999470;28;48417;-76
2021/08/17 10:31:52;;;;;;;;;9.50;8.00;;;;;20.90;51.54;101745.03;4999955;28;45479;-78
2021/08/17 10:34:17;;;;;;;;;8.25;7.75;;;;;20.89;51.46;101744.13;4999497;28;45502;-77
2021/08/17 10:36:47;;;;;;;;;8.00;7.00;;;;;20.99;51.13;101754.44;5002348;28;45150;-79
2021/08/17 10:39:18;;;;;;;;;7.00;6.50;;;;;21.02;51.45;101755.13;5002781;28;47183;-78
2021/08/17 10:41:45;;;;;;;;;8.00;6.50;;;;;20.96;51.02;101743.75;5003143;28;45482;-79
2021/08/17 10:44:19;;;;;;;;;10.00;7.75;;;;;21.01;51.53;101741.63;5001578;28;45338;-78
2021/08/17 10:46:47;;;;;;;;;8.25;6.75;;;;;21.08;51.36;101752.03;5003155;28;45389;-79
2021/08/17 10:49:27;;;;;;;;;9.00;8.25;;;;;21.04;50.76;101731.47;5002563;28;45508;-78
2021/08/17 10:51:56;;;;;;;;;7.00;6.50;;;;;21.12;50.45;101749.13;5001462;28;45366;-77
2021/08/17 10:54:21;;;;;;;;;8.00;7.00;;;;;21.12;50.31;101740.97;5001689;28;45265;-77
2021/08/17 10:56:49;;;;;;;;;8.75;8.00;;;;;21.13;50.66;101742.72;5002516;28;45453;-75
2021/08/17 10:59:42;;;;;;;;;9.00;8.00;;;;;21.14;50.45;101741.78;5002723;28;45288;-74
2021/08/17 11:02:08;;;;;;;;;7.75;6.50;;;;;20.96;50.93;101717.47;5002486;28;45352;-75
2021/08/17 11:04:45;;;;;;;;;11.75;9.75;;;;;21.15;50.39;101755.25;5001215;28;45418;-73
2021/08/17 11:07:25;;;;;;;;;9.00;7.00;;;;;21.11;49.74;101748.25;5002351;28;45304;-74
2021/08/17 11:09:51;;;;;;;;;8.75;7.00;;;;;21.08;50.04;101737.56;5001095;28;46453;-73
2021/08/17 11:12:18;;;;;;;;;5.75;5.75;;;;;21.09;49.71;101737.47;5002352;28;45392;-74